sensor_id;sensor_type;location;lat;lon;timestamp;P1;durP1;ratioP1;P2;durP2;ratioP2
33654;SDS011;19997;51.274;22.506;2023-04-20T00:01:40;11.75;;;6.63;;
33654;SDS011;19997;51.274;22.506;2023-04-20T00:04:09;16.48;;;6.63;;
33654;SDS011;19997;51.274;22.506;2023-04-20T00:06:36;9.30;;;5.63;;
33654;SDS011;19997;51.274;22.506;2023-04-20T00:09:03;11.40;;;6.70;;
33654;SDS011;19997;51.274;22.506;2023-04-20T00:11:30;15.30;;;6.80;;
33654;SDS011;19997;51.274;22.506;2023-04-20T00:13:57;12.50;;;6.45;;
33654;SDS011;19997;51.274;22.506;2023-04-20T00:16:24;14.90;;;5.72;;
33654;SDS011;19997;51.274;22.506;2023-04-20T00:18:51;14.50;;;6.15;;
33654;SDS011;19997;51.274;22.506;2023-04-20T00:21:20;17.30;;;6.72;;
33654;SDS011;19997;51.274;22.506;2023-04-20T00:23:48;12.88;;;6.50;;
33654;SDS011;19997;51.274;22.506;2023-04-20T00:26:15;11.77;;;5.95;;
33654;SDS011;19997;51.274;22.506;2023-04-20T00:28:48;17.63;;;6.50;;
33654;SDS011;19997;51.274;22.506;2023-04-20T00:31:16;12.38;;;7.28;;
33654;SDS011;19997;51.274;22.506;2023-04-20T00:33:45;13.85;;;6.30;;
33654;SDS011;19997;51.274;22.506;2023-04-20T00:36:13;12.57;;;6.93;;
33654;SDS011;19997;51.274;22.506;2023-04-20T00:38:41;18.48;;;6.97;;
33654;SDS011;19997;51.274;22.506;2023-04-20T00:41:08;13.75;;;6.72;;
33654;SDS011;19997;51.274;22.506;2023-04-20T00:43:36;14.98;;;7.75;;
33654;SDS011;19997;51.274;22.506;2023-04-20T00:46:04;20.90;;;6.55;;
33654;SDS011;19997;51.274;22.506;2023-04-20T00:48:31;13.25;;;6.68;;
33654;SDS011;19997;51.274;22.506;2023-04-20T00:50:58;14.65;;;7.20;;
33654;SDS011;19997;51.274;22.506;2023-04-20T00:53:27;16.60;;;7.10;;
33654;SDS011;19997;51.274;22.506;2023-04-20T00:55:55;11.98;;;6.10;;
33654;SDS011;19997;51.274;22.506;2023-04-20T00:58:23;17.38;;;6.70;;
33654;SDS011;19997;51.274;22.506;2023-04-20T01:00:50;14.00;;;7.22;;
33654;SDS011;19997;51.274;22.506;2023-04-20T01:03:17;14.55;;;6.40;;
33654;SDS011;19997;51.274;22.506;2023-04-20T01:05:47;13.70;;;6.20;;
33654;SDS011;19997;51.274;22.506;2023-04-20T01:08:14;15.38;;;7.30;;
33654;SDS011;19997;51.274;22.506;2023-04-20T01:10:41;11.45;;;5.55;;
33654;SDS011;19997;51.274;22.506;2023-04-20T01:13:09;15.80;;;6.55;;
33654;SDS011;19997;51.274;22.506;2023-04-20T01:15:36;10.80;;;6.75;;
33654;SDS011;19997;51.274;22.506;2023-04-20T01:18:03;14.35;;;6.85;;
33654;SDS011;19997;51.274;22.506;2023-04-20T01:20:31;14.07;;;5.55;;
33654;SDS011;19997;51.274;22.506;2023-04-20T01:23:00;13.00;;;5.47;;
33654;SDS011;19997;51.274;22.506;2023-04-20T01:25:27;12.65;;;5.78;;
33654;SDS011;19997;51.274;22.506;2023-04-20T01:27:54;12.25;;;5.60;;
33654;SDS011;19997;51.274;22.506;2023-04-20T01:30:21;11.73;;;5.78;;
33654;SDS011;19997;51.274;22.506;2023-04-20T01:32:48;12.43;;;5.88;;
33654;SDS011;19997;51.274;22.506;2023-04-20T01:35:16;10.70;;;5.55;;
33654;SDS011;19997;51.274;22.506;2023-04-20T01:37:43;10.10;;;4.90;;
33654;SDS011;19997;51.274;22.506;2023-04-20T01:40:12;10.13;;;5.18;;
33654;SDS011;19997;51.274;22.506;2023-04-20T01:42:39;10.60;;;5.75;;
33654;SDS011;19997;51.274;22.506;2023-04-20T01:45:07;10.82;;;5.45;;
33654;SDS011;19997;51.274;22.506;2023-04-20T01:47:35;8.88;;;5.20;;
33654;SDS011;19997;51.274;22.506;2023-04-20T01:50:02;13.52;;;5.25;;
33654;SDS011;19997;51.274;22.506;2023-04-20T01:52:30;14.35;;;5.85;;
33654;SDS011;19997;51.274;22.506;2023-04-20T01:54:57;9.60;;;5.43;;
33654;SDS011;19997;51.274;22.506;2023-04-20T01:57:25;9.25;;;4.85;;
33654;SDS011;19997;51.274;22.506;2023-04-20T01:59:52;10.65;;;4.93;;
33654;SDS011;19997;51.274;22.506;2023-04-20T02:02:19;12.43;;;4.70;;
33654;SDS011;19997;51.274;22.506;2023-04-20T02:04:47;11.50;;;5.68;;
33654;SDS011;19997;51.274;22.506;2023-04-20T02:07:14;10.77;;;4.60;;
33654;SDS011;19997;51.274;22.506;2023-04-20T02:09:41;9.43;;;4.93;;
33654;SDS011;19997;51.274;22.506;2023-04-20T02:12:08;10.93;;;5.55;;
33654;SDS011;19997;51.274;22.506;2023-04-20T02:14:39;10.32;;;5.18;;
33654;SDS011;19997;51.274;22.506;2023-04-20T02:17:08;11.50;;;4.80;;
33654;SDS011;19997;51.274;22.506;2023-04-20T02:19:35;17.67;;;5.85;;
33654;SDS011;19997;51.274;22.506;2023-04-20T02:22:03;6.93;;;4.30;;
33654;SDS011;19997;51.274;22.506;2023-04-20T02:24:30;10.82;;;4.50;;
33654;SDS011;19997;51.274;22.506;2023-04-20T02:26:57;10.10;;;4.78;;
33654;SDS011;19997;51.274;22.506;2023-04-20T02:29:25;19.98;;;4.97;;
33654;SDS011;19997;51.274;22.506;2023-04-20T02:31:53;8.57;;;4.20;;
33654;SDS011;19997;51.274;22.506;2023-04-20T02:34:20;7.78;;;3.67;;
33654;SDS011;19997;51.274;22.506;2023-04-20T02:36:48;7.25;;;3.72;;
33654;SDS011;19997;51.274;22.506;2023-04-20T02:39:15;6.85;;;3.63;;
33654;SDS011;19997;51.274;22.506;2023-04-20T02:41:42;10.10;;;4.38;;
33654;SDS011;19997;51.274;22.506;2023-04-20T02:44:09;9.18;;;4.40;;
33654;SDS011;19997;51.274;22.506;2023-04-20T02:46:36;8.50;;;3.97;;
33654;SDS011;19997;51.274;22.506;2023-04-20T02:49:04;11.32;;;4.00;;
33654;SDS011;19997;51.274;22.506;2023-04-20T02:51:37;7.22;;;3.63;;
33654;SDS011;19997;51.274;22.506;2023-04-20T02:54:04;8.82;;;4.03;;
33654;SDS011;19997;51.274;22.506;2023-04-20T02:56:31;8.52;;;4.40;;
33654;SDS011;19997;51.274;22.506;2023-04-20T02:59:05;9.18;;;5.03;;
33654;SDS011;19997;51.274;22.506;2023-04-20T03:02:02;6.03;;;3.75;;
33654;SDS011;19997;51.274;22.506;2023-04-20T03:04:31;12.73;;;4.00;;
33654;SDS011;19997;51.274;22.506;2023-04-20T03:07:06;8.38;;;4.40;;
33654;SDS011;19997;51.274;22.506;2023-04-20T03:09:35;10.73;;;4.53;;
33654;SDS011;19997;51.274;22.506;2023-04-20T03:12:11;7.50;;;4.32;;
33654;SDS011;19997;51.274;22.506;2023-04-20T03:14:58;8.38;;;4.43;;
33654;SDS011;19997;51.274;22.506;2023-04-20T03:17:46;12.82;;;4.35;;
33654;SDS011;19997;51.274;22.506;2023-04-20T03:20:15;19.23;;;5.80;;
33654;SDS011;19997;51.274;22.506;2023-04-20T03:22:42;8.63;;;4.85;;
33654;SDS011;19997;51.274;22.506;2023-04-20T03:25:10;11.07;;;5.20;;
33654;SDS011;19997;51.274;22.506;2023-04-20T03:27:51;8.98;;;5.00;;
33654;SDS011;19997;51.274;22.506;2023-04-20T03:30:19;10.07;;;5.53;;
33654;SDS011;19997;51.274;22.506;2023-04-20T03:32:51;11.57;;;5.93;;
33654;SDS011;19997;51.274;22.506;2023-04-20T03:35:19;11.88;;;5.85;;
33654;SDS011;19997;51.274;22.506;2023-04-20T03:37:47;9.88;;;5.25;;
33654;SDS011;19997;51.274;22.506;2023-04-20T03:40:14;10.43;;;5.68;;
33654;SDS011;19997;51.274;22.506;2023-04-20T03:42:41;9.70;;;4.78;;
33654;SDS011;19997;51.274;22.506;2023-04-20T03:45:08;13.05;;;5.43;;
33654;SDS011;19997;51.274;22.506;2023-04-20T03:47:36;10.20;;;4.47;;
33654;SDS011;19997;51.274;22.506;2023-04-20T03:50:04;8.48;;;4.95;;
33654;SDS011;19997;51.274;22.506;2023-04-20T03:52:33;12.20;;;4.53;;
33654;SDS011;19997;51.274;22.506;2023-04-20T03:55:03;13.32;;;5.53;;
33654;SDS011;19997;51.274;22.506;2023-04-20T03:57:32;9.75;;;4.15;;
33654;SDS011;19997;51.274;22.506;2023-04-20T04:00:01;9.37;;;4.83;;
33654;SDS011;19997;51.274;22.506;2023-04-20T04:02:43;12.48;;;4.45;;
33654;SDS011;19997;51.274;22.506;2023-04-20T04:05:11;16.90;;;5.53;;
33654;SDS011;19997;51.274;22.506;2023-04-20T04:07:39;11.88;;;5.13;;
33654;SDS011;19997;51.274;22.506;2023-04-20T04:10:06;12.82;;;4.90;;
33654;SDS011;19997;51.274;22.506;2023-04-20T04:12:34;15.50;;;5.97;;
33654;SDS011;19997;51.274;22.506;2023-04-20T04:15:02;19.52;;;6.85;;
33654;SDS011;19997;51.274;22.506;2023-04-20T04:17:33;18.67;;;6.97;;
33654;SDS011;19997;51.274;22.506;2023-04-20T04:20:00;12.07;;;6.00;;
33654;SDS011;19997;51.274;22.506;2023-04-20T04:22:27;10.50;;;5.70;;
33654;SDS011;19997;51.274;22.506;2023-04-20T04:25:25;9.75;;;4.68;;
33654;SDS011;19997;51.274;22.506;2023-04-20T04:27:53;12.00;;;4.65;;
33654;SDS011;19997;51.274;22.506;2023-04-20T04:30:20;12.38;;;5.43;;
33654;SDS011;19997;51.274;22.506;2023-04-20T04:32:49;12.15;;;4.75;;
33654;SDS011;19997;51.274;22.506;2023-04-20T04:35:16;9.43;;;4.13;;
33654;SDS011;19997;51.274;22.506;2023-04-20T04:37:44;10.18;;;3.63;;
33654;SDS011;19997;51.274;22.506;2023-04-20T04:40:11;8.45;;;3.85;;
33654;SDS011;19997;51.274;22.506;2023-04-20T04:42:41;10.13;;;4.82;;
33654;SDS011;19997;51.274;22.506;2023-04-20T04:45:10;7.22;;;4.20;;
33654;SDS011;19997;51.274;22.506;2023-04-20T04:47:39;9.63;;;3.80;;
33654;SDS011;19997;51.274;22.506;2023-04-20T04:50:07;6.38;;;3.63;;
33654;SDS011;19997;51.274;22.506;2023-04-20T04:52:35;6.38;;;3.47;;
33654;SDS011;19997;51.274;22.506;2023-04-20T04:55:02;11.20;;;4.00;;
33654;SDS011;19997;51.274;22.506;2023-04-20T04:57:32;9.32;;;5.00;;
33654;SDS011;19997;51.274;22.506;2023-04-20T05:00:00;7.55;;;3.92;;
33654;SDS011;19997;51.274;22.506;2023-04-20T05:02:31;10.23;;;3.55;;
33654;SDS011;19997;51.274;22.506;2023-04-20T05:04:58;9.13;;;3.40;;
33654;SDS011;19997;51.274;22.506;2023-04-20T05:07:25;14.40;;;4.20;;
33654;SDS011;19997;51.274;22.506;2023-04-20T05:09:52;7.88;;;4.07;;
33654;SDS011;19997;51.274;22.506;2023-04-20T05:12:19;13.20;;;3.85;;
33654;SDS011;19997;51.274;22.506;2023-04-20T05:14:46;11.63;;;4.55;;
33654;SDS011;19997;51.274;22.506;2023-04-20T05:17:14;10.55;;;4.55;;
33654;SDS011;19997;51.274;22.506;2023-04-20T05:19:41;11.90;;;3.85;;
33654;SDS011;19997;51.274;22.506;2023-04-20T05:22:08;15.60;;;4.57;;
33654;SDS011;19997;51.274;22.506;2023-04-20T05:24:35;7.82;;;3.60;;
33654;SDS011;19997;51.274;22.506;2023-04-20T05:27:03;11.25;;;4.85;;
33654;SDS011;19997;51.274;22.506;2023-04-20T05:29:30;15.23;;;5.22;;
33654;SDS011;19997;51.274;22.506;2023-04-20T05:31:57;13.88;;;4.47;;
33654;SDS011;19997;51.274;22.506;2023-04-20T05:34:25;13.48;;;4.70;;
33654;SDS011;19997;51.274;22.506;2023-04-20T05:36:52;14.43;;;4.82;;
33654;SDS011;19997;51.274;22.506;2023-04-20T05:39:21;15.35;;;4.25;;
33654;SDS011;19997;51.274;22.506;2023-04-20T05:41:48;10.93;;;4.38;;
33654;SDS011;19997;51.274;22.506;2023-04-20T05:44:15;8.82;;;4.60;;
33654;SDS011;19997;51.274;22.506;2023-04-20T05:46:42;14.00;;;5.55;;
33654;SDS011;19997;51.274;22.506;2023-04-20T05:49:09;14.00;;;5.40;;
33654;SDS011;19997;51.274;22.506;2023-04-20T05:51:37;10.25;;;4.38;;
33654;SDS011;19997;51.274;22.506;2023-04-20T05:54:04;8.32;;;3.65;;
33654;SDS011;19997;51.274;22.506;2023-04-20T05:56:31;12.50;;;6.00;;
33654;SDS011;19997;51.274;22.506;2023-04-20T05:58:58;17.20;;;4.20;;
33654;SDS011;19997;51.274;22.506;2023-04-20T06:01:26;11.05;;;3.80;;
33654;SDS011;19997;51.274;22.506;2023-04-20T06:03:53;11.75;;;3.42;;
33654;SDS011;19997;51.274;22.506;2023-04-20T06:06:20;8.98;;;3.85;;
33654;SDS011;19997;51.274;22.506;2023-04-20T06:08:48;10.63;;;4.60;;
33654;SDS011;19997;51.274;22.506;2023-04-20T06:11:16;11.68;;;3.40;;
33654;SDS011;19997;51.274;22.506;2023-04-20T06:13:43;11.10;;;3.72;;
33654;SDS011;19997;51.274;22.506;2023-04-20T06:16:10;15.07;;;4.63;;
33654;SDS011;19997;51.274;22.506;2023-04-20T06:18:37;10.45;;;2.80;;
33654;SDS011;19997;51.274;22.506;2023-04-20T06:21:05;12.00;;;3.28;;
33654;SDS011;19997;51.274;22.506;2023-04-20T06:23:35;10.40;;;2.88;;
33654;SDS011;19997;51.274;22.506;2023-04-20T06:26:04;12.75;;;3.58;;
33654;SDS011;19997;51.274;22.506;2023-04-20T06:28:32;9.45;;;3.80;;
33654;SDS011;19997;51.274;22.506;2023-04-20T06:31:00;7.88;;;2.92;;
33654;SDS011;19997;51.274;22.506;2023-04-20T06:33:27;15.77;;;3.60;;
33654;SDS011;19997;51.274;22.506;2023-04-20T06:35:55;9.43;;;3.10;;
33654;SDS011;19997;51.274;22.506;2023-04-20T06:38:22;11.30;;;3.45;;
33654;SDS011;19997;51.274;22.506;2023-04-20T06:40:49;14.80;;;3.20;;
33654;SDS011;19997;51.274;22.506;2023-04-20T06:43:18;16.85;;;3.33;;
33654;SDS011;19997;51.274;22.506;2023-04-20T06:45:45;9.90;;;4.05;;
33654;SDS011;19997;51.274;22.506;2023-04-20T06:48:12;15.52;;;3.58;;
33654;SDS011;19997;51.274;22.506;2023-04-20T06:50:39;13.32;;;3.83;;
33654;SDS011;19997;51.274;22.506;2023-04-20T06:53:06;12.13;;;2.75;;
33654;SDS011;19997;51.274;22.506;2023-04-20T06:55:33;13.43;;;3.15;;
33654;SDS011;19997;51.274;22.506;2023-04-20T06:58:00;16.67;;;3.00;;
33654;SDS011;19997;51.274;22.506;2023-04-20T07:00:29;10.88;;;3.90;;
33654;SDS011;19997;51.274;22.506;2023-04-20T07:02:56;6.22;;;2.70;;
33654;SDS011;19997;51.274;22.506;2023-04-20T07:05:23;13.13;;;3.05;;
33654;SDS011;19997;51.274;22.506;2023-04-20T07:07:52;15.00;;;2.63;;
33654;SDS011;19997;51.274;22.506;2023-04-20T07:10:20;14.85;;;2.95;;
33654;SDS011;19997;51.274;22.506;2023-04-20T07:12:47;17.33;;;3.40;;
33654;SDS011;19997;51.274;22.506;2023-04-20T07:15:14;11.68;;;3.47;;
33654;SDS011;19997;51.274;22.506;2023-04-20T07:17:42;20.95;;;4.70;;
33654;SDS011;19997;51.274;22.506;2023-04-20T07:20:09;19.10;;;2.70;;
33654;SDS011;19997;51.274;22.506;2023-04-20T07:22:37;13.43;;;2.63;;
33654;SDS011;19997;51.274;22.506;2023-04-20T07:25:05;15.77;;;4.15;;
33654;SDS011;19997;51.274;22.506;2023-04-20T07:27:34;9.75;;;3.33;;
33654;SDS011;19997;51.274;22.506;2023-04-20T07:30:02;14.88;;;3.20;;
33654;SDS011;19997;51.274;22.506;2023-04-20T07:32:31;10.68;;;2.85;;
33654;SDS011;19997;51.274;22.506;2023-04-20T07:35:00;12.43;;;2.88;;
33654;SDS011;19997;51.274;22.506;2023-04-20T07:37:27;13.35;;;2.70;;
33654;SDS011;19997;51.274;22.506;2023-04-20T07:39:55;7.75;;;2.42;;
33654;SDS011;19997;51.274;22.506;2023-04-20T07:42:22;20.77;;;2.92;;
33654;SDS011;19997;51.274;22.506;2023-04-20T07:44:49;13.98;;;2.53;;
33654;SDS011;19997;51.274;22.506;2023-04-20T07:47:16;10.27;;;2.50;;
33654;SDS011;19997;51.274;22.506;2023-04-20T07:49:44;26.33;;;3.65;;
33654;SDS011;19997;51.274;22.506;2023-04-20T07:52:12;9.95;;;2.63;;
33654;SDS011;19997;51.274;22.506;2023-04-20T07:54:39;10.68;;;2.80;;
33654;SDS011;19997;51.274;22.506;2023-04-20T07:57:06;13.60;;;2.83;;
33654;SDS011;19997;51.274;22.506;2023-04-20T07:59:33;13.80;;;2.88;;
33654;SDS011;19997;51.274;22.506;2023-04-20T08:02:01;8.50;;;2.50;;
33654;SDS011;19997;51.274;22.506;2023-04-20T08:04:28;12.55;;;3.03;;
33654;SDS011;19997;51.274;22.506;2023-04-20T08:06:55;11.05;;;2.70;;
33654;SDS011;19997;51.274;22.506;2023-04-20T08:09:24;18.55;;;3.85;;
33654;SDS011;19997;51.274;22.506;2023-04-20T08:11:52;10.10;;;2.83;;
33654;SDS011;19997;51.274;22.506;2023-04-20T08:14:20;7.63;;;2.22;;
33654;SDS011;19997;51.274;22.506;2023-04-20T08:16:48;7.15;;;2.25;;
33654;SDS011;19997;51.274;22.506;2023-04-20T08:19:15;11.77;;;2.95;;
33654;SDS011;19997;51.274;22.506;2023-04-20T08:21:42;14.80;;;2.75;;
33654;SDS011;19997;51.274;22.506;2023-04-20T08:24:09;8.27;;;2.53;;
33654;SDS011;19997;51.274;22.506;2023-04-20T08:26:38;11.45;;;3.28;;
33654;SDS011;19997;51.274;22.506;2023-04-20T08:29:06;17.27;;;3.00;;
33654;SDS011;19997;51.274;22.506;2023-04-20T08:31:33;8.05;;;2.58;;
33654;SDS011;19997;51.274;22.506;2023-04-20T08:34:00;8.68;;;1.92;;
33654;SDS011;19997;51.274;22.506;2023-04-20T08:36:27;6.78;;;2.67;;
33654;SDS011;19997;51.274;22.506;2023-04-20T08:38:56;13.70;;;2.65;;
33654;SDS011;19997;51.274;22.506;2023-04-20T08:41:31;10.30;;;2.75;;
33654;SDS011;19997;51.274;22.506;2023-04-20T08:44:00;7.40;;;2.45;;
33654;SDS011;19997;51.274;22.506;2023-04-20T08:46:27;14.35;;;2.33;;
33654;SDS011;19997;51.274;22.506;2023-04-20T08:48:54;18.10;;;3.38;;
33654;SDS011;19997;51.274;22.506;2023-04-20T08:51:23;5.70;;;1.98;;
33654;SDS011;19997;51.274;22.506;2023-04-20T08:53:50;5.60;;;1.80;;
33654;SDS011;19997;51.274;22.506;2023-04-20T08:56:18;8.27;;;2.42;;
33654;SDS011;19997;51.274;22.506;2023-04-20T08:58:45;14.80;;;2.60;;
33654;SDS011;19997;51.274;22.506;2023-04-20T09:01:14;12.30;;;1.92;;
33654;SDS011;19997;51.274;22.506;2023-04-20T09:03:43;7.93;;;2.08;;
33654;SDS011;19997;51.274;22.506;2023-04-20T09:06:13;8.25;;;2.60;;
33654;SDS011;19997;51.274;22.506;2023-04-20T09:08:41;11.70;;;2.55;;
33654;SDS011;19997;51.274;22.506;2023-04-20T09:11:19;6.70;;;2.28;;
33654;SDS011;19997;51.274;22.506;2023-04-20T09:16:37;9.32;;;2.17;;
33654;SDS011;19997;51.274;22.506;2023-04-20T09:19:04;10.13;;;2.70;;
33654;SDS011;19997;51.274;22.506;2023-04-20T09:21:32;12.07;;;2.20;;
33654;SDS011;19997;51.274;22.506;2023-04-20T09:23:59;5.28;;;1.75;;
33654;SDS011;19997;51.274;22.506;2023-04-20T09:26:30;8.15;;;1.95;;
33654;SDS011;19997;51.274;22.506;2023-04-20T09:28:59;4.57;;;2.03;;
33654;SDS011;19997;51.274;22.506;2023-04-20T09:31:26;5.90;;;1.90;;
33654;SDS011;19997;51.274;22.506;2023-04-20T09:33:59;8.07;;;2.17;;
33654;SDS011;19997;51.274;22.506;2023-04-20T09:36:36;6.68;;;2.05;;
33654;SDS011;19997;51.274;22.506;2023-04-20T09:39:06;10.60;;;2.30;;
33654;SDS011;19997;51.274;22.506;2023-04-20T09:41:34;5.13;;;2.00;;
33654;SDS011;19997;51.274;22.506;2023-04-20T09:44:02;11.27;;;3.60;;
33654;SDS011;19997;51.274;22.506;2023-04-20T09:46:30;5.68;;;2.20;;
33654;SDS011;19997;51.274;22.506;2023-04-20T09:49:00;9.15;;;2.25;;
33654;SDS011;19997;51.274;22.506;2023-04-20T09:51:30;5.25;;;1.80;;
33654;SDS011;19997;51.274;22.506;2023-04-20T09:54:00;15.73;;;2.33;;
33654;SDS011;19997;51.274;22.506;2023-04-20T09:56:28;4.60;;;1.80;;
33654;SDS011;19997;51.274;22.506;2023-04-20T09:58:56;5.90;;;2.08;;
33654;SDS011;19997;51.274;22.506;2023-04-20T10:01:24;8.38;;;2.03;;
33654;SDS011;19997;51.274;22.506;2023-04-20T10:03:51;10.88;;;1.88;;
33654;SDS011;19997;51.274;22.506;2023-04-20T10:06:25;6.47;;;1.85;;
33654;SDS011;19997;51.274;22.506;2023-04-20T10:11:24;5.10;;;1.70;;
33654;SDS011;19997;51.274;22.506;2023-04-20T10:13:56;8.50;;;2.55;;
33654;SDS011;19997;51.274;22.506;2023-04-20T10:18:57;7.85;;;2.58;;
33654;SDS011;19997;51.274;22.506;2023-04-20T10:21:28;4.28;;;1.95;;
33654;SDS011;19997;51.274;22.506;2023-04-20T10:23:56;3.63;;;1.92;;
33654;SDS011;19997;51.274;22.506;2023-04-20T10:26:34;5.17;;;3.40;;
33654;SDS011;19997;51.274;22.506;2023-04-20T10:29:02;3.97;;;1.70;;
33654;SDS011;19997;51.274;22.506;2023-04-20T10:31:37;12.05;;;2.40;;
33654;SDS011;19997;51.274;22.506;2023-04-20T10:34:05;4.55;;;2.13;;
33654;SDS011;19997;51.274;22.506;2023-04-20T10:36:34;7.07;;;1.92;;
33654;SDS011;19997;51.274;22.506;2023-04-20T10:39:12;14.18;;;2.70;;
33654;SDS011;19997;51.274;22.506;2023-04-20T10:41:50;5.43;;;2.45;;
33654;SDS011;19997;51.274;22.506;2023-04-20T10:44:18;3.60;;;2.53;;
33654;SDS011;19997;51.274;22.506;2023-04-20T10:46:47;5.32;;;2.58;;
33654;SDS011;19997;51.274;22.506;2023-04-20T10:49:15;3.38;;;2.60;;
33654;SDS011;19997;51.274;22.506;2023-04-20T10:51:47;9.48;;;2.22;;
33654;SDS011;19997;51.274;22.506;2023-04-20T10:54:15;7.18;;;2.17;;
33654;SDS011;19997;51.274;22.506;2023-04-20T10:56:43;10.80;;;2.30;;
33654;SDS011;19997;51.274;22.506;2023-04-20T10:59:12;4.35;;;2.53;;
33654;SDS011;19997;51.274;22.506;2023-04-20T11:01:40;10.30;;;2.25;;
33654;SDS011;19997;51.274;22.506;2023-04-20T11:04:08;4.53;;;1.95;;
33654;SDS011;19997;51.274;22.506;2023-04-20T11:06:36;4.15;;;2.40;;
33654;SDS011;19997;51.274;22.506;2023-04-20T11:09:16;6.80;;;2.35;;
33654;SDS011;19997;51.274;22.506;2023-04-20T11:11:44;4.95;;;2.13;;
33654;SDS011;19997;51.274;22.506;2023-04-20T11:14:11;12.27;;;2.92;;
33654;SDS011;19997;51.274;22.506;2023-04-20T11:16:39;14.27;;;2.50;;
33654;SDS011;19997;51.274;22.506;2023-04-20T11:19:06;7.88;;;2.03;;
33654;SDS011;19997;51.274;22.506;2023-04-20T11:21:34;10.57;;;2.70;;
33654;SDS011;19997;51.274;22.506;2023-04-20T11:24:03;7.78;;;2.25;;
33654;SDS011;19997;51.274;22.506;2023-04-20T11:26:38;3.13;;;2.10;;
33654;SDS011;19997;51.274;22.506;2023-04-20T11:29:06;11.00;;;2.75;;
33654;SDS011;19997;51.274;22.506;2023-04-20T11:31:33;12.75;;;2.83;;
33654;SDS011;19997;51.274;22.506;2023-04-20T11:34:01;4.57;;;2.03;;
33654;SDS011;19997;51.274;22.506;2023-04-20T11:36:28;8.57;;;2.25;;
33654;SDS011;19997;51.274;22.506;2023-04-20T11:39:05;10.35;;;2.25;;
33654;SDS011;19997;51.274;22.506;2023-04-20T11:41:33;7.82;;;2.67;;
33654;SDS011;19997;51.274;22.506;2023-04-20T11:44:05;6.07;;;2.72;;
33654;SDS011;19997;51.274;22.506;2023-04-20T11:46:33;12.27;;;3.67;;
33654;SDS011;19997;51.274;22.506;2023-04-20T11:49:01;4.32;;;3.10;;
33654;SDS011;19997;51.274;22.506;2023-04-20T11:51:30;10.95;;;3.10;;
33654;SDS011;19997;51.274;22.506;2023-04-20T11:53:57;12.35;;;2.50;;
33654;SDS011;19997;51.274;22.506;2023-04-20T11:56:24;5.20;;;2.30;;
33654;SDS011;19997;51.274;22.506;2023-04-20T11:58:51;9.05;;;2.30;;
33654;SDS011;19997;51.274;22.506;2023-04-20T12:01:20;6.50;;;2.78;;
33654;SDS011;19997;51.274;22.506;2023-04-20T12:03:47;6.90;;;2.13;;
33654;SDS011;19997;51.274;22.506;2023-04-20T12:06:14;6.82;;;2.35;;
33654;SDS011;19997;51.274;22.506;2023-04-20T12:08:41;4.28;;;2.00;;
33654;SDS011;19997;51.274;22.506;2023-04-20T12:11:08;5.05;;;2.22;;
33654;SDS011;19997;51.274;22.506;2023-04-20T12:13:35;3.50;;;2.35;;
33654;SDS011;19997;51.274;22.506;2023-04-20T12:16:02;6.97;;;2.13;;
33654;SDS011;19997;51.274;22.506;2023-04-20T12:18:31;4.50;;;2.60;;
33654;SDS011;19997;51.274;22.506;2023-04-20T12:20:58;4.80;;;2.20;;
33654;SDS011;19997;51.274;22.506;2023-04-20T12:23:25;9.23;;;2.88;;
33654;SDS011;19997;51.274;22.506;2023-04-20T12:25:52;4.43;;;2.22;;
33654;SDS011;19997;51.274;22.506;2023-04-20T12:28:19;8.98;;;2.45;;
33654;SDS011;19997;51.274;22.506;2023-04-20T12:30:47;9.80;;;2.05;;
33654;SDS011;19997;51.274;22.506;2023-04-20T12:33:14;7.18;;;2.33;;
33654;SDS011;19997;51.274;22.506;2023-04-20T12:35:42;9.43;;;2.67;;
33654;SDS011;19997;51.274;22.506;2023-04-20T12:38:10;3.63;;;1.95;;
33654;SDS011;19997;51.274;22.506;2023-04-20T12:40:37;5.43;;;1.65;;
33654;SDS011;19997;51.274;22.506;2023-04-20T12:43:04;5.47;;;1.80;;
33654;SDS011;19997;51.274;22.506;2023-04-20T12:45:31;9.13;;;1.92;;
33654;SDS011;19997;51.274;22.506;2023-04-20T12:47:59;2.83;;;2.00;;
33654;SDS011;19997;51.274;22.506;2023-04-20T12:50:26;6.30;;;2.25;;
33654;SDS011;19997;51.274;22.506;2023-04-20T12:52:54;4.45;;;2.42;;
33654;SDS011;19997;51.274;22.506;2023-04-20T12:55:23;5.97;;;2.38;;
33654;SDS011;19997;51.274;22.506;2023-04-20T12:57:51;9.18;;;2.78;;
33654;SDS011;19997;51.274;22.506;2023-04-20T13:00:18;9.13;;;2.72;;
33654;SDS011;19997;51.274;22.506;2023-04-20T13:02:45;4.28;;;2.28;;
33654;SDS011;19997;51.274;22.506;2023-04-20T13:05:13;5.05;;;2.60;;
33654;SDS011;19997;51.274;22.506;2023-04-20T13:07:40;7.82;;;2.25;;
33654;SDS011;19997;51.274;22.506;2023-04-20T13:10:09;5.43;;;2.58;;
33654;SDS011;19997;51.274;22.506;2023-04-20T13:12:36;8.00;;;2.70;;
33654;SDS011;19997;51.274;22.506;2023-04-20T13:15:05;7.30;;;3.25;;
33654;SDS011;19997;51.274;22.506;2023-04-20T13:17:33;8.88;;;2.67;;
33654;SDS011;19997;51.274;22.506;2023-04-20T13:20:00;9.07;;;2.38;;
33654;SDS011;19997;51.274;22.506;2023-04-20T13:22:28;5.32;;;2.88;;
33654;SDS011;19997;51.274;22.506;2023-04-20T13:24:55;7.28;;;2.75;;
33654;SDS011;19997;51.274;22.506;2023-04-20T13:27:24;4.80;;;2.25;;
33654;SDS011;19997;51.274;22.506;2023-04-20T13:29:51;7.30;;;2.65;;
33654;SDS011;19997;51.274;22.506;2023-04-20T13:32:19;5.10;;;2.67;;
33654;SDS011;19997;51.274;22.506;2023-04-20T13:34:46;3.10;;;2.20;;
33654;SDS011;19997;51.274;22.506;2023-04-20T13:37:13;4.60;;;2.25;;
33654;SDS011;19997;51.274;22.506;2023-04-20T13:39:40;13.80;;;2.50;;
33654;SDS011;19997;51.274;22.506;2023-04-20T13:42:07;8.68;;;2.50;;
33654;SDS011;19997;51.274;22.506;2023-04-20T13:44:36;6.30;;;2.53;;
33654;SDS011;19997;51.274;22.506;2023-04-20T13:47:03;8.20;;;2.20;;
33654;SDS011;19997;51.274;22.506;2023-04-20T13:49:30;2.85;;;1.73;;
33654;SDS011;19997;51.274;22.506;2023-04-20T13:51:57;4.20;;;2.33;;
33654;SDS011;19997;51.274;22.506;2023-04-20T13:54:24;5.22;;;2.25;;
33654;SDS011;19997;51.274;22.506;2023-04-20T13:56:51;4.22;;;1.98;;
33654;SDS011;19997;51.274;22.506;2023-04-20T13:59:18;10.27;;;2.20;;
33654;SDS011;19997;51.274;22.506;2023-04-20T14:01:47;5.15;;;2.35;;
33654;SDS011;19997;51.274;22.506;2023-04-20T14:04:14;5.70;;;2.40;;
33654;SDS011;19997;51.274;22.506;2023-04-20T14:06:41;2.63;;;1.80;;
33654;SDS011;19997;51.274;22.506;2023-04-20T14:09:08;3.65;;;2.20;;
33654;SDS011;19997;51.274;22.506;2023-04-20T14:11:36;9.63;;;2.35;;
33654;SDS011;19997;51.274;22.506;2023-04-20T14:14:03;5.07;;;2.55;;
33654;SDS011;19997;51.274;22.506;2023-04-20T14:16:31;4.03;;;1.88;;
33654;SDS011;19997;51.274;22.506;2023-04-20T14:18:59;5.70;;;1.98;;
33654;SDS011;19997;51.274;22.506;2023-04-20T14:21:26;7.10;;;3.03;;
33654;SDS011;19997;51.274;22.506;2023-04-20T14:23:53;7.68;;;2.75;;
33654;SDS011;19997;51.274;22.506;2023-04-20T14:26:21;14.85;;;2.92;;
33654;SDS011;19997;51.274;22.506;2023-04-20T14:28:48;5.35;;;2.60;;
33654;SDS011;19997;51.274;22.506;2023-04-20T14:31:17;5.93;;;2.15;;
33654;SDS011;19997;51.274;22.506;2023-04-20T14:33:44;5.80;;;2.53;;
33654;SDS011;19997;51.274;22.506;2023-04-20T14:36:12;9.05;;;2.65;;
33654;SDS011;19997;51.274;22.506;2023-04-20T14:38:40;5.32;;;2.60;;
33654;SDS011;19997;51.274;22.506;2023-04-20T14:41:08;6.43;;;2.72;;
33654;SDS011;19997;51.274;22.506;2023-04-20T14:43:38;4.88;;;2.70;;